Time;durP1;ratioP1;P1;durP2;ratioP2;P2;SDS_P1;SDS_P2;PMS_P1;PMS_P2;Temp;Humidity;BMP_temperature;BMP_pressure;BME280_temperature;BME280_humidity;BME280_pressure;Samples;Min_cycle;Max_cycle;Signal;HPM_P1;HPM_P2
2023/11/27 00:01:12;;;;;;;7.50;4.28;;;4.40;99.90;;;;;;4954910;28;20081;-84
2023/11/27 00:03:39;;;;;;;9.95;5.53;;;4.40;99.90;;;;;;4974194;28;20479;-83
2023/11/27 00:06:06;;;;;;;8.20;4.57;;;4.40;99.90;;;;;;4970297;28;20118;-85
2023/11/27 00:08:32;;;;;;;7.20;3.97;;;4.40;99.90;;;;;;4970464;28;20093;-85
2023/11/27 00:10:58;;;;;;;9.95;4.90;;;4.40;99.90;;;;;;4971099;28;20133;-84
2023/11/27 00:13:24;;;;;;;8.00;4.35;;;4.40;99.90;;;;;;4987009;28;20087;-86
2023/11/27 00:15:50;;;;;;;7.82;4.90;;;4.40;99.90;;;;;;4969364;28;20219;-85
2023/11/27 00:18:16;;;;;;;9.07;4.97;;;4.40;99.90;;;;;;4969005;28;20034;-86
2023/11/27 00:20:42;;;;;;;10.27;6.15;;;4.40;99.90;;;;;;4971810;28;20117;-86
2023/11/27 00:23:09;;;;;;;9.38;5.00;;;4.40;99.90;;;;;;4971076;28;20070;-83
2023/11/27 00:25:35;;;;;;;9.52;6.65;;;4.40;99.90;;;;;;4958289;28;20480;-84
2023/11/27 00:28:01;;;;;;;12.60;6.47;;;4.40;99.90;;;;;;4952061;28;20027;-84
2023/11/27 00:30:28;;;;;;;7.68;5.43;;;4.40;99.90;;;;;;4979858;28;20030;-84
2023/11/27 00:32:54;;;;;;;8.25;5.40;;;4.40;99.90;;;;;;4985687;28;20054;-83
2023/11/27 00:35:20;;;;;;;7.05;4.88;;;4.40;99.90;;;;;;4976464;28;20110;-85
2023/11/27 00:37:46;;;;;;;8.48;4.95;;;4.40;99.90;;;;;;4976742;28;20023;-85
2023/11/27 00:40:11;;;;;;;10.27;5.85;;;4.40;99.90;;;;;;4960536;28;20656;-86
2023/11/27 00:42:38;;;;;;;8.05;4.93;;;4.30;99.90;;;;;;4986144;28;20057;-84
2023/11/27 00:45:05;;;;;;;9.32;6.25;;;4.40;99.90;;;;;;4962325;28;20026;-86
2023/11/27 00:47:33;;;;;;;8.00;5.45;;;4.30;99.90;;;;;;4985662;28;20293;-86
2023/11/27 00:49:58;;;;;;;10.77;6.20;;;4.40;99.90;;;;;;4953906;28;20532;-84
2023/11/27 00:52:24;;;;;;;9.98;6.55;;;4.30;99.90;;;;;;4978805;28;20117;-86
2023/11/27 00:54:50;;;;;;;8.45;4.93;;;4.40;99.90;;;;;;4984118;28;20034;-84
2023/11/27 00:57:16;;;;;;;10.05;7.03;;;4.30;99.90;;;;;;4969900;28;20114;-87
2023/11/27 00:59:42;;;;;;;7.40;4.20;;;4.30;99.90;;;;;;4971082;28;20042;-85
2023/11/27 01:02:09;;;;;;;7.90;4.28;;;4.40;99.90;;;;;;4969708;28;20480;-85
2023/11/27 01:04:38;;;;;;;9.27;5.38;;;4.40;99.90;;;;;;4976850;28;20035;-84
2023/11/27 01:07:04;;;;;;;11.57;6.67;;;4.40;99.90;;;;;;4969464;28;20023;-85
2023/11/27 01:09:31;;;;;;;9.40;7.13;;;4.40;99.90;;;;;;4967711;28;20037;-84
2023/11/27 01:11:57;;;;;;;11.05;6.40;;;4.30;99.90;;;;;;4986212;28;20023;-87
2023/11/27 01:14:23;;;;;;;7.82;4.78;;;4.40;99.90;;;;;;4986176;28;20022;-86
2023/11/27 01:16:48;;;;;;;9.27;5.18;;;4.30;99.90;;;;;;4970204;28;20027;-84
2023/11/27 01:19:14;;;;;;;9.63;5.78;;;4.40;99.90;;;;;;4961558;28;20209;-84
2023/11/27 01:21:40;;;;;;;9.73;6.18;;;4.30;99.90;;;;;;4970207;28;20053;-84
2023/11/27 01:24:06;;;;;;;9.10;6.05;;;4.40;99.90;;;;;;4984714;28;20047;-85
2023/11/27 01:26:33;;;;;;;12.57;6.97;;;4.30;99.90;;;;;;4962627;28;20479;-84
2023/11/27 01:28:58;;;;;;;8.23;5.72;;;4.30;99.90;;;;;;4985349;28;20518;-84
2023/11/27 01:31:24;;;;;;;9.48;5.35;;;4.40;99.90;;;;;;4959432;28;20027;-84
2023/11/27 01:33:51;;;;;;;6.90;4.30;;;4.40;99.90;;;;;;4958032;28;20042;-86
2023/11/27 01:36:20;;;;;;;6.90;3.95;;;4.40;99.90;;;;;;4969826;28;20034;-83
2023/11/27 01:38:45;;;;;;;7.38;4.68;;;4.40;99.90;;;;;;4959322;28;20373;-87
2023/11/27 01:41:11;;;;;;;6.70;4.50;;;4.40;99.90;;;;;;4959912;28;20045;-84
2023/11/27 01:43:37;;;;;;;9.35;5.22;;;4.30;99.90;;;;;;4968253;28;20057;-85
2023/11/27 01:46:23;;;;;;;7.45;6.07;;;4.40;99.90;;;;;;4957456;28;20038;-83
2023/11/27 01:48:53;;;;;;;10.80;5.97;;;4.40;99.90;;;;;;4985293;28;20391;-84
2023/11/27 01:51:20;;;;;;;;;;;4.30;99.90;;;;;;4952927;28;20031;-83
2023/11/27 01:53:48;;;;;;;6.25;3.83;;;4.30;99.90;;;;;;4968529;28;19924;-85
2023/11/27 01:56:15;;;;;;;7.93;4.38;;;4.30;99.90;;;;;;4967860;28;20053;-85
2023/11/27 01:58:40;;;;;;;7.75;4.80;;;4.30;99.90;;;;;;4967645;28;20031;-83
2023/11/27 02:01:07;;;;;;;8.20;5.10;;;4.30;99.90;;;;;;4971842;28;20034;-84
2023/11/27 02:03:33;;;;;;;8.25;4.38;;;4.30;99.90;;;;;;4972698;28;20066;-86
2023/11/27 02:05:59;;;;;;;7.95;4.72;;;4.40;99.90;;;;;;4950502;28;20059;-85
2023/11/27 02:08:25;;;;;;;9.55;5.38;;;4.30;99.90;;;;;;4969601;28;20031;-86
2023/11/27 02:10:52;;;;;;;8.70;4.70;;;4.30;99.90;;;;;;4950391;28;21843;-87
2023/11/27 02:13:18;;;;;;;8.93;5.85;;;4.30;99.90;;;;;;4969426;28;20151;-84
2023/11/27 02:15:44;;;;;;;8.70;5.78;;;4.30;99.90;;;;;;4965859;28;20487;-83
2023/11/27 02:18:09;;;;;;;7.32;4.68;;;4.30;99.90;;;;;;4966888;28;20023;-84
2023/11/27 02:20:35;;;;;;;8.98;5.07;;;4.30;99.90;;;;;;4966432;28;20187;-84
2023/11/27 02:23:01;;;;;;;7.78;5.38;;;4.30;99.90;;;;;;4968931;28;20049;-84
2023/11/27 02:25:26;;;;;;;7.03;4.75;;;4.20;99.90;;;;;;4984239;28;20022;-83
2023/11/27 02:27:52;;;;;;;9.63;5.55;;;4.30;99.90;;;;;;4968669;28;20507;-83
2023/11/27 02:30:20;;;;;;;11.70;5.95;;;4.20;99.90;;;;;;4969063;28;20018;-83
2023/11/27 02:32:48;;;;;;;7.90;5.35;;;4.20;99.90;;;;;;4983835;28;20019;-83
2023/11/27 02:35:14;;;;;;;14.02;6.93;;;4.20;99.90;;;;;;4984490;28;20031;-83
2023/11/27 02:37:40;;;;;;;12.32;5.65;;;4.20;99.90;;;;;;4984195;28;20085;-86
2023/11/27 02:40:10;;;;;;;9.45;5.28;;;4.20;99.90;;;;;;4969599;28;20035;-87
2023/11/27 02:42:36;;;;;;;8.43;5.05;;;4.20;99.90;;;;;;4968354;28;20042;-84
2023/11/27 02:45:03;;;;;;;8.73;5.22;;;4.20;99.90;;;;;;4968142;28;20414;-86
2023/11/27 02:47:28;;;;;;;8.77;4.82;;;4.20;99.90;;;;;;4983828;28;20539;-82
2023/11/27 02:49:54;;;;;;;14.48;7.20;;;4.20;99.90;;;;;;4967103;28;20110;-85
2023/11/27 02:52:20;;;;;;;11.50;5.90;;;4.20;99.90;;;;;;4982532;28;20440;-82
2023/11/27 02:54:46;;;;;;;12.02;5.90;;;4.20;99.90;;;;;;4974978;28;20027;-87
2023/11/27 02:57:11;;;;;;;10.82;6.97;;;4.10;99.90;;;;;;4973196;28;20094;-83
2023/11/27 02:59:37;;;;;;;9.13;5.53;;;4.10;99.90;;;;;;4967823;28;20566;-82
2023/11/27 03:02:03;;;;;;;13.63;6.63;;;4.10;99.90;;;;;;4969880;28;20061;-83
2023/11/27 03:04:30;;;;;;;11.40;6.00;;;4.10;99.90;;;;;;4968871;28;20031;-84
2023/11/27 03:06:57;;;;;;;9.73;5.63;;;4.20;99.90;;;;;;4974375;28;20427;-86
2023/11/27 03:09:22;;;;;;;14.00;7.45;;;4.10;99.90;;;;;;4968211;28;20058;-83
2023/11/27 03:11:49;;;;;;;13.05;5.80;;;4.10;99.90;;;;;;4982825;28;20027;-86
2023/11/27 03:14:15;;;;;;;9.85;5.75;;;4.10;99.90;;;;;;4967681;28;20396;-86
2023/11/27 03:16:41;;;;;;;12.07;6.63;;;4.10;99.90;;;;;;4982752;28;20085;-85
2023/11/27 03:19:07;;;;;;;9.48;6.10;;;4.10;99.90;;;;;;4971377;28;20038;-83
2023/11/27 03:21:33;;;;;;;8.45;4.63;;;4.10;99.90;;;;;;4949456;28;20049;-86
2023/11/27 03:23:58;;;;;;;7.63;5.18;;;4.10;99.90;;;;;;4967117;28;20074;-84
2023/11/27 03:26:24;;;;;;;10.00;5.53;;;4.00;99.90;;;;;;4967565;28;20057;-86
2023/11/27 03:28:49;;;;;;;12.25;5.88;;;4.10;99.90;;;;;;4963006;28;20039;-83
2023/11/27 03:31:15;;;;;;;10.98;6.20;;;4.10;99.90;;;;;;4972405;28;20066;-81
2023/11/27 03:33:41;;;;;;;8.73;5.72;;;4.00;99.90;;;;;;4970495;28;20117;-84
2023/11/27 03:36:07;;;;;;;13.32;6.10;;;4.00;99.90;;;;;;4958638;28;20023;-84
2023/11/27 03:38:33;;;;;;;11.00;6.45;;;4.00;99.90;;;;;;4951821;28;20030;-86
2023/11/27 03:40:59;;;;;;;11.52;5.75;;;4.00;99.90;;;;;;4966948;28;20041;-84
2023/11/27 03:43:24;;;;;;;6.68;4.25;;;4.00;99.90;;;;;;4952978;28;20487;-85
2023/11/27 03:45:50;;;;;;;9.90;5.18;;;4.00;99.90;;;;;;4961740;28;20051;-84
2023/11/27 03:48:16;;;;;;;6.65;4.65;;;4.00;99.90;;;;;;4986596;28;20035;-83
2023/11/27 03:50:41;;;;;;;10.20;5.28;;;4.00;99.90;;;;;;4986847;28;20034;-84
2023/11/27 03:53:07;;;;;;;6.45;4.53;;;4.00;99.90;;;;;;4969918;28;20058;-87
2023/11/27 03:55:33;;;;;;;9.25;5.28;;;4.00;99.90;;;;;;4960636;28;20077;-82
2023/11/27 03:57:59;;;;;;;6.78;4.07;;;4.00;99.90;;;;;;4968424;28;20035;-85
2023/11/27 04:00:25;;;;;;;8.10;5.85;;;4.00;99.90;;;;;;4986190;28;20040;-81
2023/11/27 04:02:51;;;;;;;8.00;5.20;;;4.00;99.90;;;;;;4969715;28;20065;-83
2023/11/27 04:05:19;;;;;;;8.68;5.25;;;4.00;99.90;;;;;;4976560;28;20464;-84
2023/11/27 04:07:44;;;;;;;8.23;5.05;;;4.00;99.90;;;;;;4973527;28;20043;-83
2023/11/27 04:10:16;;;;;;;6.70;3.50;;;4.00;99.90;;;;;;4961668;28;20114;-86
2023/11/27 04:12:43;;;;;;;13.38;7.35;;;4.00;99.90;;;;;;4960430;28;20035;-85
2023/11/27 04:15:10;;;;;;;7.25;5.50;;;4.00;99.90;;;;;;4970856;28;20031;-83
2023/11/27 04:17:36;;;;;;;13.70;6.82;;;4.00;99.90;;;;;;4974560;28;20089;-86
2023/11/27 04:20:05;;;;;;;10.82;7.20;;;4.00;99.90;;;;;;4970545;28;20031;-84
2023/11/27 04:22:31;;;;;;;7.97;5.90;;;4.00;99.90;;;;;;4970795;28;20035;-85
2023/11/27 04:24:59;;;;;;;9.68;5.10;;;4.00;99.90;;;;;;4976253;28;20498;-86
2023/11/27 04:27:25;;;;;;;6.13;4.22;;;4.00;99.90;;;;;;4954148;28;20027;-87
2023/11/27 04:29:50;;;;;;;10.35;6.03;;;4.00;99.90;;;;;;4953743;28;20433;-84
2023/11/27 04:32:16;;;;;;;7.25;5.63;;;3.90;99.90;;;;;;4974035;28;20027;-82
2023/11/27 04:34:42;;;;;;;9.90;4.30;;;3.90;99.90;;;;;;4978826;28;20169;-84
2023/11/27 04:37:10;;;;;;;11.52;7.53;;;3.90;99.90;;;;;;4965562;28;20027;-83
2023/11/27 04:39:36;;;;;;;8.43;4.72;;;3.90;99.90;;;;;;4961357;28;20042;-82
2023/11/27 04:42:02;;;;;;;7.75;5.28;;;3.90;99.90;;;;;;4985760;28;20026;-84
2023/11/27 04:44:28;;;;;;;8.32;4.95;;;3.90;99.90;;;;;;4986544;28;20141;-85
2023/11/27 04:46:54;;;;;;;8.18;3.88;;;4.00;99.90;;;;;;4983984;28;20062;-82
2023/11/27 04:49:20;;;;;;;4.38;3.20;;;4.00;99.90;;;;;;4968274;28;20023;-81
2023/11/27 04:51:45;;;;;;;6.15;3.20;;;3.90;99.90;;;;;;4985005;28;20030;-82
2023/11/27 04:54:11;;;;;;;5.93;3.83;;;3.90;99.90;;;;;;4968947;28;20384;-83
2023/11/27 04:56:36;;;;;;;7.80;4.40;;;3.90;99.90;;;;;;4970150;28;20031;-84
2023/11/27 04:59:02;;;;;;;7.88;4.47;;;4.00;99.90;;;;;;4953608;28;20093;-85
2023/11/27 05:01:28;;;;;;;6.47;2.95;;;3.90;99.90;;;;;;4961646;28;20427;-85
2023/11/27 05:03:55;;;;;;;5.78;2.85;;;4.00;99.90;;;;;;4969446;28;20700;-85
2023/11/27 05:06:21;;;;;;;4.85;2.17;;;4.00;99.90;;;;;;4961165;28;20034;-85
2023/11/27 05:08:47;;;;;;;4.50;2.13;;;4.00;99.90;;;;;;4968828;28;20038;-84
2023/11/27 05:11:19;;;;;;;5.30;2.33;;;3.90;99.90;;;;;;4970556;28;20467;-85
2023/11/27 05:13:47;;;;;;;4.53;2.45;;;3.90;99.90;;;;;;4984390;28;20031;-86
2023/11/27 05:16:14;;;;;;;4.82;1.73;;;3.90;99.90;;;;;;4977103;28;20030;-84
2023/11/27 05:18:42;;;;;;;3.85;1.70;;;4.00;99.90;;;;;;4985814;28;20031;-83
2023/11/27 05:21:13;;;;;;;4.43;2.10;;;4.00;99.90;;;;;;4953695;28;20534;-82
2023/11/27 05:23:42;;;;;;;4.80;2.50;;;3.90;99.90;;;;;;4966219;28;20038;-85
2023/11/27 05:26:11;;;;;;;5.57;2.55;;;3.90;99.90;;;;;;4965554;28;20045;-82
2023/11/27 05:28:38;;;;;;;2.77;2.10;;;3.90;99.90;;;;;;4955351;28;20034;-81
2023/11/27 05:31:05;;;;;;;3.40;2.08;;;3.90;99.90;;;;;;4974933;28;20762;-87
2023/11/27 05:33:31;;;;;;;4.65;2.95;;;3.90;99.90;;;;;;4968677;28;20471;-82
2023/11/27 05:35:57;;;;;;;10.20;3.35;;;3.90;99.90;;;;;;4969013;28;20475;-84
2023/11/27 05:38:23;;;;;;;4.00;3.13;;;3.90;99.90;;;;;;4983217;28;20026;-86
2023/11/27 05:40:50;;;;;;;4.95;2.08;;;3.90;99.90;;;;;;4971264;28;20030;-83
2023/11/27 05:43:17;;;;;;;6.25;3.33;;;3.90;99.90;;;;;;4973060;28;20082;-84
2023/11/27 05:45:43;;;;;;;4.45;2.63;;;3.90;99.90;;;;;;4985914;28;20480;-82
2023/11/27 05:48:09;;;;;;;5.40;3.35;;;3.90;99.90;;;;;;4975446;28;20065;-85
2023/11/27 05:50:41;;;;;;;5.60;2.50;;;3.90;99.90;;;;;;4967718;28;20543;-85
2023/11/27 05:53:09;;;;;;;4.50;3.08;;;3.90;99.90;;;;;;4968438;28;20106;-83
2023/11/27 05:55:35;;;;;;;4.68;2.20;;;3.90;99.90;;;;;;4959822;28;20073;-83
2023/11/27 05:58:01;;;;;;;5.22;2.28;;;3.90;99.90;;;;;;4983921;28;20047;-84
2023/11/27 06:00:26;;;;;;;2.88;1.67;;;3.90;99.90;;;;;;4968301;28;20042;-85
2023/11/27 06:02:53;;;;;;;2.30;1.10;;;3.90;99.90;;;;;;4972734;28;20618;-82
2023/11/27 06:05:19;;;;;;;4.05;1.30;;;3.90;99.90;;;;;;4968730;28;20046;-86
2023/11/27 06:07:48;;;;;;;2.88;1.20;;;3.90;99.90;;;;;;4977064;28;20034;-83
2023/11/27 06:10:14;;;;;;;3.27;1.20;;;3.90;99.90;;;;;;4976655;28;20022;-85
2023/11/27 06:12:40;;;;;;;4.05;1.30;;;3.90;99.90;;;;;;4980570;28;20178;-83
2023/11/27 06:15:06;;;;;;;3.25;1.10;;;3.90;99.90;;;;;;4973126;28;20114;-82
2023/11/27 06:17:32;;;;;;;3.63;1.02;;;3.90;99.90;;;;;;4968590;28;20030;-85
2023/11/27 06:19:57;;;;;;;4.35;1.17;;;3.90;99.90;;;;;;4968578;28;20089;-82
2023/11/27 06:22:23;;;;;;;3.42;1.50;;;3.90;99.90;;;;;;4967182;28;20227;-83
2023/11/27 06:24:49;;;;;;;3.00;1.23;;;3.90;99.90;;;;;;4960052;28;20041;-84
2023/11/27 06:27:15;;;;;;;2.50;1.20;;;3.90;99.90;;;;;;4958351;28;20138;-84
2023/11/27 06:29:40;;;;;;;2.90;1.02;;;3.90;99.90;;;;;;4947668;28;20391;-85
2023/11/27 06:32:06;;;;;;;3.00;1.42;;;3.90;99.90;;;;;;4983192;28;20027;-82
2023/11/27 06:34:32;;;;;;;2.90;1.58;;;3.90;99.90;;;;;;4965081;28;20115;-82
2023/11/27 06:36:58;;;;;;;3.25;1.83;;;3.90;99.90;;;;;;4982046;28;20116;-82
2023/11/27 06:39:26;;;;;;;4.10;1.40;;;3.90;99.90;;;;;;4969167;28;20034;-82
2023/11/27 06:41:55;;;;;;;3.70;1.40;;;3.90;99.90;;;;;;4959359;28;20378;-81
2023/11/27 06:44:21;;;;;;;2.97;1.08;;;3.90;99.90;;;;;;4964297;28;20083;-84
2023/11/27 06:46:46;;;;;;;1.80;0.90;;;3.90;99.90;;;;;;4947697;28;20046;-84
2023/11/27 06:49:12;;;;;;;1.90;0.90;;;3.90;99.90;;;;;;4959848;28;20570;-84
2023/11/27 06:51:39;;;;;;;2.65;1.17;;;3.90;99.90;;;;;;4958616;28;20039;-83
2023/11/27 06:54:05;;;;;;;3.33;1.38;;;3.90;99.90;;;;;;4972875;28;20109;-84
2023/11/27 06:56:33;;;;;;;3.80;1.88;;;3.80;99.90;;;;;;4962640;28;20486;-82
2023/11/27 06:59:03;;;;;;;3.20;1.10;;;3.80;99.90;;;;;;4948130;28;20377;-84
2023/11/27 07:01:29;;;;;;;3.88;1.10;;;3.80;99.90;;;;;;4967877;28;20138;-84
2023/11/27 07:03:55;;;;;;;3.45;1.10;;;3.80;99.90;;;;;;4963011;28;20578;-83
2023/11/27 07:06:22;;;;;;;1.75;0.95;;;3.80;99.90;;;;;;4971498;28;20077;-84
2023/11/27 07:08:48;;;;;;;3.10;1.80;;;3.80;99.90;;;;;;4986913;28;20034;-84
2023/11/27 07:11:14;;;;;;;2.92;1.30;;;3.80;99.90;;;;;;4963664;28;20432;-81
2023/11/27 07:13:40;;;;;;;3.90;0.90;;;3.80;99.90;;;;;;4970810;28;20073;-82
2023/11/27 07:16:06;;;;;;;1.73;0.85;;;3.70;99.90;;;;;;4948719;28;20051;-86
2023/11/27 07:18:32;;;;;;;2.20;1.30;;;3.80;99.90;;;;;;4971218;28;20081;-86
2023/11/27 07:20:58;;;;;;;2.00;0.80;;;3.70;99.90;;;;;;4964759;28;20034;-82
2023/11/27 07:23:26;;;;;;;4.45;0.95;;;3.70;99.90;;;;;;4970773;28;20035;-83
2023/11/27 07:25:52;;;;;;;1.40;0.70;;;3.70;99.90;;;;;;4954429;28;20031;-84
2023/11/27 07:28:18;;;;;;;3.92;0.95;;;3.70;99.90;;;;;;4968158;28;20554;-84
2023/11/27 07:30:43;;;;;;;1.73;0.70;;;3.70;99.90;;;;;;4961020;28;20031;-84
2023/11/27 07:33:09;;;;;;;1.42;0.60;;;3.70;99.90;;;;;;4971480;28;20085;-84
2023/11/27 07:35:35;;;;;;;1.40;0.50;;;3.70;99.90;;;;;;4970821;28;20037;-82
2023/11/27 07:38:01;;;;;;;1.40;0.50;;;3.80;99.90;;;;;;4985347;28;20120;-85
2023/11/27 07:40:27;;;;;;;1.33;0.60;;;3.70;99.90;;;;;;4975762;28;20061;-81
2023/11/27 07:42:54;;;;;;;1.45;0.60;;;3.70;99.90;;;;;;4970505;28;20058;-84
2023/11/27 07:45:20;;;;;;;1.20;0.50;;;3.70;99.90;;;;;;4978999;28;20026;-84
2023/11/27 07:47:46;;;;;;;1.58;0.57;;;3.70;99.90;;;;;;4987123;28;20554;-85
2023/11/27 07:50:12;;;;;;;1.38;0.60;;;3.70;99.90;;;;;;4970659;28;20436;-84
2023/11/27 07:52:38;;;;;;;1.38;0.52;;;3.70;99.90;;;;;;4959791;28;20118;-83
2023/11/27 07:55:04;;;;;;;1.50;0.50;;;3.70;99.90;;;;;;4968787;28;20399;-85
2023/11/27 07:57:32;;;;;;;1.48;0.60;;;3.70;99.90;;;;;;4969992;28;20092;-82
2023/11/27 08:00:02;;;;;;;1.50;0.50;;;3.70;99.90;;;;;;4969938;28;20502;-84
2023/11/27 08:02:42;;;;;;;1.52;0.50;;;3.70;99.90;;;;;;4984205;28;20043;-85
2023/11/27 08:05:08;;;;;;;2.92;0.65;;;3.70;99.90;;;;;;4970920;28;20019;-83
2023/11/27 08:07:34;;;;;;;1.63;0.50;;;3.70;99.90;;;;;;4960482;28;20041;-85
2023/11/27 08:10:01;;;;;;;1.13;0.50;;;3.70;99.90;;;;;;4973527;28;20023;-84
2023/11/27 08:12:26;;;;;;;1.00;0.40;;;3.70;99.90;;;;;;4973806;28;20018;-83
2023/11/27 08:14:52;;;;;;;1.25;0.50;;;3.70;99.90;;;;;;4969338;28;20479;-84
2023/11/27 08:17:18;;;;;;;1.90;0.60;;;3.70;99.90;;;;;;4970702;28;20027;-81
2023/11/27 08:19:44;;;;;;;1.55;0.60;;;3.70;99.90;;;;;;4972948;28;20106;-85
2023/11/27 08:22:11;;;;;;;1.50;0.60;;;3.80;99.90;;;;;;4984257;28;20034;-83
2023/11/27 08:24:40;;;;;;;2.22;0.80;;;3.80;99.90;;;;;;4966043;28;20039;-81
2023/11/27 08:27:06;;;;;;;3.05;0.70;;;3.80;99.90;;;;;;4965292;28;20034;-84
2023/11/27 08:29:32;;;;;;;2.67;0.88;;;3.80;99.90;;;;;;4960596;28;20049;-85
2023/11/27 08:31:59;;;;;;;1.88;0.70;;;3.80;99.90;;;;;;4970925;28;20015;-85
2023/11/27 08:34:31;;;;;;;1.60;0.70;;;3.80;99.90;;;;;;4953665;28;20023;-84
2023/11/27 08:36:59;;;;;;;1.65;0.80;;;3.80;99.90;;;;;;4972868;28;20027;-84
2023/11/27 08:39:25;;;;;;;1.83;0.63;;;3.80;99.90;;;;;;4953200;28;20539;-85
2023/11/27 08:41:51;;;;;;;1.88;0.80;;;3.80;99.90;;;;;;4969621;28;20642;-82
2023/11/27 08:44:18;;;;;;;2.20;0.70;;;3.80;99.90;;;;;;4975807;28;20411;-84
2023/11/27 08:46:44;;;;;;;1.42;0.70;;;3.80;99.90;;;;;;4969511;28;20138;-84
2023/11/27 08:49:10;;;;;;;1.48;0.50;;;3.90;99.90;;;;;;4969111;28;20517;-84
2023/11/27 08:51:36;;;;;;;1.77;0.50;;;3.80;99.90;;;;;;4984419;28;20023;-84
2023/11/27 08:54:02;;;;;;;2.05;0.60;;;3.90;99.90;;;;;;4982981;28;20364;-84
2023/11/27 08:56:33;;;;;;;1.65;0.60;;;3.90;99.90;;;;;;4966506;28;20031;-84
2023/11/27 08:59:00;;;;;;;1.63;0.65;;;3.90;99.90;;;;;;4966951;28;20438;-81
2023/11/27 09:01:26;;;;;;;1.33;0.50;;;3.90;99.90;;;;;;4981516;28;20411;-85
2023/11/27 09:03:52;;;;;;;1.20;0.50;;;3.90;99.90;;;;;;4962809;28;20046;-84
2023/11/27 09:06:19;;;;;;;1.73;0.55;;;3.90;99.90;;;;;;4965976;28;20073;-81
2023/11/27 09:08:45;;;;;;;1.42;0.60;;;3.90;99.90;;;;;;4948372;28;20093;-81
2023/11/27 09:11:11;;;;;;;1.17;0.50;;;3.90;99.90;;;;;;4979716;28;20027;-83
2023/11/27 09:13:37;;;;;;;1.05;0.52;;;3.90;99.90;;;;;;4981852;28;20035;-85
2023/11/27 09:16:03;;;;;;;1.05;0.45;;;3.90;99.90;;;;;;4981438;28;20066;-85
2023/11/27 09:18:31;;;;;;;1.30;0.52;;;4.00;99.90;;;;;;4945077;28;20058;-86
2023/11/27 09:20:57;;;;;;;1.90;0.40;;;3.90;99.90;;;;;;4981949;28;20079;-83
2023/11/27 09:23:22;;;;;;;2.03;0.50;;;3.90;99.90;;;;;;4967636;28;20483;-82
2023/11/27 09:25:48;;;;;;;1.38;0.50;;;4.00;99.90;;;;;;4982909;28;20482;-83
2023/11/27 09:28:14;;;;;;;1.27;0.50;;;3.90;99.90;;;;;;4950727;28;20070;-85
2023/11/27 09:30:39;;;;;;;1.42;0.60;;;4.00;99.90;;;;;;4950770;28;20209;-84
2023/11/27 09:33:05;;;;;;;1.40;0.77;;;4.00;99.90;;;;;;4967661;28;20035;-85
2023/11/27 09:35:30;;;;;;;1.80;0.40;;;4.00;99.90;;;;;;4966486;28;20054;-84
2023/11/27 09:37:56;;;;;;;1.40;0.40;;;4.00;99.90;;;;;;4981623;28;20030;-87
2023/11/27 09:40:22;;;;;;;1.40;0.60;;;4.00;99.90;;;;;;4962029;28;20395;-87
2023/11/27 09:42:48;;;;;;;1.08;0.45;;;4.00;99.90;;;;;;4981858;28;20103;-82
2023/11/27 09:45:16;;;;;;;1.20;0.45;;;4.00;99.90;;;;;;4967524;28;20035;-85
2023/11/27 09:47:44;;;;;;;0.98;0.40;;;4.00;99.90;;;;;;4981670;28;20085;-83
2023/11/27 09:50:12;;;;;;;0.70;0.30;;;4.00;99.90;;;;;;4981137;28;20501;-87
2023/11/27 09:53:04;;;;;;;1.10;0.50;;;4.10;99.90;;;;;;4981350;28;20031;-85
2023/11/27 09:55:34;;;;;;;1.08;0.40;;;4.10;99.90;;;;;;4979075;28;20039;-85
2023/11/27 09:58:01;;;;;;;0.90;0.40;;;4.10;99.90;;;;;;4982114;28;20186;-86
2023/11/27 10:00:29;;;;;;;1.20;0.43;;;4.10;99.90;;;;;;4983109;28;20042;-86
2023/11/27 10:02:55;;;;;;;0.90;0.40;;;4.10;99.90;;;;;;4977751;28;20045;-86
2023/11/27 10:05:21;;;;;;;1.40;0.60;;;4.10;99.90;;;;;;4981441;28;20027;-84
2023/11/27 10:07:51;;;;;;;1.20;0.57;;;4.10;99.90;;;;;;4980656;28;20118;-85
2023/11/27 10:10:25;;;;;;;0.98;0.50;;;4.10;99.90;;;;;;4982073;28;20030;-85
2023/11/27 10:12:51;;;;;;;1.27;0.63;;;4.10;99.90;;;;;;4981234;28;20050;-86
2023/11/27 10:15:17;;;;;;;1.27;0.50;;;4.10;99.90;;;;;;4950985;28;20097;-85
2023/11/27 10:17:43;;;;;;;1.50;0.60;;;4.10;99.90;;;;;;4981658;28;20030;-85
2023/11/27 10:20:18;;;;;;;0.80;0.50;;;4.10;99.90;;;;;;4964591;28;20059;-81
2023/11/27 10:22:44;;;;;;;1.30;0.50;;;4.10;99.90;;;;;;4964104;28;20043;-85
2023/11/27 10:25:13;;;;;;;1.35;0.60;;;4.10;99.90;;;;;;4964819;28;20482;-82
2023/11/27 10:27:41;;;;;;;0.70;0.30;;;4.10;99.90;;;;;;4947569;28;20042;-84
2023/11/27 10:30:18;;;;;;;1.05;0.50;;;4.10;99.90;;;;;;4979483;28;20038;-82
2023/11/27 10:32:45;;;;;;;1.20;0.50;;;4.20;99.90;;;;;;4981616;28;20090;-85
2023/11/27 10:35:12;;;;;;;0.95;0.40;;;4.10;99.90;;;;;;4982669;28;20035;-82
2023/11/27 10:37:41;;;;;;;1.48;0.30;;;4.20;99.90;;;;;;4969434;28;20114;-83
2023/11/27 10:40:15;;;;;;;1.05;0.40;;;4.20;99.90;;;;;;4966055;28;20037;-87
2023/11/27 10:42:49;;;;;;;1.40;0.50;;;4.20;99.90;;;;;;4950214;28;20062;-84
2023/11/27 10:45:19;;;;;;;1.80;0.45;;;4.20;99.90;;;;;;4982858;28;20468;-82
2023/11/27 10:47:53;;;;;;;0.90;0.40;;;4.20;99.90;;;;;;4970001;28;20018;-85
2023/11/27 10:50:22;;;;;;;0.60;0.30;;;4.20;99.90;;;;;;4965822;28;20037;-85
2023/11/27 10:52:49;;;;;;;0.77;0.40;;;4.30;99.90;;;;;;4967662;28;20034;-82
2023/11/27 10:55:17;;;;;;;1.23;0.40;;;4.30;99.90;;;;;;4962487;28;20054;-80
2023/11/27 10:57:44;;;;;;;0.82;0.43;;;4.30;99.90;;;;;;4975102;28;20122;-80
2023/11/27 11:00:32;;;;;;;1.88;0.50;;;4.30;99.90;;;;;;4967875;28;20189;-81
2023/11/27 11:03:14;;;;;;;0.65;0.30;;;4.30;99.90;;;;;;4968156;28;20034;-80
2023/11/27 11:05:51;;;;;;;1.10;0.40;;;4.30;99.90;;;;;;4963923;28;20387;-86
2023/11/27 11:08:26;;;;;;;0.98;0.50;;;4.30;99.90;;;;;;4982121;28;20023;-84
2023/11/27 11:10:57;;;;;;;0.80;0.38;;;4.30;99.90;;;;;;4968103;28;20049;-83
2023/11/27 11:13:24;;;;;;;0.75;0.32;;;4.40;99.90;;;;;;4963351;28;20557;-81
2023/11/27 11:16:00;;;;;;;0.82;0.30;;;4.30;99.90;;;;;;4983662;28;20369;-84
2023/11/27 11:18:34;;;;;;;1.15;0.40;;;4.40;99.90;;;;;;4967102;28;20034;-87
2023/11/27 11:21:15;;;;;;;0.60;0.30;;;4.40;99.90;;;;;;4983872;28;20084;-86
2023/11/27 11:24:08;;;;;;;0.70;0.32;;;4.40;99.90;;;;;;4964370;28;20047;-82
2023/11/27 11:27:07;;;;;;;1.00;0.30;;;4.50;99.90;;;;;;4968301;28;20034;-85
2023/11/27 11:29:40;;;;;;;0.73;0.30;;;4.50;99.90;;;;;;4967485;28;20089;-81
2023/11/27 11:32:13;;;;;;;0.60;0.28;;;4.50;99.90;;;;;;4981554;28;20023;-82
2023/11/27 11:34:47;;;;;;;0.70;0.30;;;4.50;99.90;;;;;;4966340;28;20035;-81
2023/11/27 11:37:14;;;;;;;0.77;0.35;;;4.60;99.90;;;;;;4983060;28;20035;-84
2023/11/27 11:39:47;;;;;;;0.70;0.30;;;4.60;99.90;;;;;;4967605;28;20027;-80
2023/11/27 11:42:17;;;;;;;0.60;0.30;;;4.50;99.90;;;;;;4966674;28;20027;-81
2023/11/27 11:45:04;;;;;;;0.70;0.30;;;4.60;99.90;;;;;;4979203;28;20148;-84
2023/11/27 11:47:33;;;;;;;0.82;0.30;;;4.60;99.90;;;;;;4982289;28;20031;-82
2023/11/27 11:50:24;;;;;;;0.90;0.30;;;4.60;99.90;;;;;;4984934;28;20070;-81
2023/11/27 11:52:52;;;;;;;1.55;0.30;;;4.70;99.90;;;;;;4982191;28;20262;-84
2023/11/27 11:55:27;;;;;;;0.73;0.30;;;4.70;99.90;;;;;;4997794;28;20061;-83
2023/11/27 11:57:57;;;;;;;0.85;0.30;;;4.70;99.90;;;;;;4984650;28;20031;-80
2023/11/27 12:00:23;;;;;;;1.08;0.38;;;4.70;99.90;;;;;;4983449;28;20045;-80
2023/11/27 12:02:52;;;;;;;0.85;0.30;;;4.70;99.90;;;;;;4981819;28;20041;-81
2023/11/27 12:05:19;;;;;;;0.77;0.30;;;4.70;99.90;;;;;;4967150;28;20053;-87
2023/11/27 12:07:44;;;;;;;1.05;0.40;;;4.70;99.90;;;;;;4981110;28;20058;-82
2023/11/27 12:10:16;;;;;;;0.85;0.35;;;4.80;99.90;;;;;;4984751;28;20471;-83
2023/11/27 12:12:52;;;;;;;0.50;0.30;;;4.80;99.90;;;;;;4980559;28;20058;-85
2023/11/27 12:15:19;;;;;;;0.60;0.30;;;4.80;99.90;;;;;;4984893;28;20038;-86
2023/11/27 12:17:50;;;;;;;0.50;0.20;;;4.80;99.90;;;;;;4985359;28;20070;-85
2023/11/27 12:20:21;;;;;;;0.60;0.20;;;4.80;99.90;;;;;;4985623;28;20507;-84
2023/11/27 12:22:48;;;;;;;0.65;0.30;;;4.80;99.90;;;;;;4974683;28;20042;-85
2023/11/27 12:25:18;;;;;;;0.73;0.30;;;4.80;99.90;;;;;;4985814;28;20054;-84
2023/11/27 12:27:45;;;;;;;0.70;0.30;;;4.80;99.90;;;;;;4984561;28;20030;-81
2023/11/27 12:30:18;;;;;;;0.70;0.30;;;4.80;99.90;;;;;;4981658;28;20034;-85
2023/11/27 12:32:50;;;;;;;1.17;0.30;;;4.80;99.90;;;;;;4984253;28;20027;-84
2023/11/27 12:35:16;;;;;;;;;;;4.80;99.90;;;;;;4985503;28;20033;-82
2023/11/27 12:37:49;;;;;;;1.25;0.30;;;4.90;99.90;;;;;;4983570;28;19920;-81
2023/11/27 12:40:18;;;;;;;0.60;0.30;;;4.90;99.90;;;;;;4984312;28;20023;-80
2023/11/27 12:42:46;;;;;;;0.50;0.28;;;4.80;99.90;;;;;;4981377;28;20038;-81
2023/11/27 12:45:13;;;;;;;0.60;0.30;;;4.80;99.90;;;;;;4965844;28;20513;-82
2023/11/27 12:47:39;;;;;;;0.60;0.28;;;4.90;99.90;;;;;;4976879;28;20049;-82
2023/11/27 12:50:22;;;;;;;0.70;0.30;;;4.90;99.90;;;;;;4984481;28;20487;-81
2023/11/27 12:52:48;;;;;;;0.63;0.30;;;4.90;99.90;;;;;;4964318;28;20053;-81
2023/11/27 12:55:14;;;;;;;0.50;0.20;;;4.90;99.90;;;;;;4981805;28;20416;-83
2023/11/27 12:57:40;;;;;;;0.70;0.28;;;4.90;99.90;;;;;;4982868;28;20034;-85